sensor_id;sensor_type;location;lat;lon;timestamp;pressure;altitude;pressure_sealevel;temperature;humidity
46534;BME280;32260;52.008;4.752;2022-08-03T00:00:39;101556.97;;;23.18;60.33
46534;BME280;32260;52.008;4.752;2022-08-03T00:03:06;101565.06;;;23.18;60.10
46534;BME280;32260;52.008;4.752;2022-08-03T00:05:32;101558.78;;;23.18;60.16
46534;BME280;32260;52.008;4.752;2022-08-03T00:07:59;101558.88;;;23.16;60.55
46534;BME280;32260;52.008;4.752;2022-08-03T00:10:26;101554.41;;;23.15;59.41
46534;BME280;32260;52.008;4.752;2022-08-03T00:12:52;101552.69;;;23.14;60.51
46534;BME280;32260;52.008;4.752;2022-08-03T00:15:19;101556.00;;;23.19;60.39
46534;BME280;32260;52.008;4.752;2022-08-03T00:17:46;101556.97;;;23.18;60.72
46534;BME280;32260;52.008;4.752;2022-08-03T00:20:12;101553.31;;;23.19;60.44
46534;BME280;32260;52.008;4.752;2022-08-03T00:22:39;101555.13;;;23.19;60.28
46534;BME280;32260;52.008;4.752;2022-08-03T00:25:05;101557.91;;;23.17;60.15
46534;BME280;32260;52.008;4.752;2022-08-03T00:27:32;101551.91;;;23.12;60.59
46534;BME280;32260;52.008;4.752;2022-08-03T00:29:58;101549.38;;;23.09;60.34
46534;BME280;32260;52.008;4.752;2022-08-03T00:32:24;101554.19;;;23.04;61.07
46534;BME280;32260;52.008;4.752;2022-08-03T00:34:50;101546.09;;;23.04;60.71
46534;BME280;32260;52.008;4.752;2022-08-03T00:37:17;101541.00;;;22.99;60.80
46534;BME280;32260;52.008;4.752;2022-08-03T00:39:43;101542.91;;;22.97;60.53
46534;BME280;32260;52.008;4.752;2022-08-03T00:42:11;101545.78;;;22.94;61.15
46534;BME280;32260;52.008;4.752;2022-08-03T00:44:41;101544.06;;;22.93;61.29
46534;BME280;32260;52.008;4.752;2022-08-03T00:47:08;101542.44;;;22.90;61.68
46534;BME280;32260;52.008;4.752;2022-08-03T00:49:37;101542.50;;;22.89;61.98
46534;BME280;32260;52.008;4.752;2022-08-03T00:52:04;101534.50;;;22.87;61.34
46534;BME280;32260;52.008;4.752;2022-08-03T00:54:32;101531.00;;;22.85;62.09
46534;BME280;32260;52.008;4.752;2022-08-03T00:56:58;101535.53;;;22.85;61.98
46534;BME280;32260;52.008;4.752;2022-08-03T00:59:25;101538.34;;;22.83;61.92
46534;BME280;32260;52.008;4.752;2022-08-03T01:01:53;101540.63;;;22.75;62.43
46534;BME280;32260;52.008;4.752;2022-08-03T01:04:19;101537.94;;;22.75;62.35
46534;BME280;32260;52.008;4.752;2022-08-03T01:06:54;101532.38;;;22.78;62.49
46534;BME280;32260;52.008;4.752;2022-08-03T01:09:31;101531.38;;;22.79;62.23
46534;BME280;32260;52.008;4.752;2022-08-03T01:12:24;101523.09;;;22.82;61.96
46534;BME280;32260;52.008;4.752;2022-08-03T01:15:02;101534.28;;;22.76;62.18
46534;BME280;32260;52.008;4.752;2022-08-03T01:17:36;101526.16;;;22.76;62.13
46534;BME280;32260;52.008;4.752;2022-08-03T01:20:10;101518.84;;;22.78;62.70
46534;BME280;32260;52.008;4.752;2022-08-03T01:31:00;101524.00;;;22.67;62.66
46534;BME280;32260;52.008;4.752;2022-08-03T01:33:36;101528.47;;;22.68;62.60
46534;BME280;32260;52.008;4.752;2022-08-03T01:36:08;101528.22;;;22.56;63.42
46534;BME280;32260;52.008;4.752;2022-08-03T01:38:38;101530.78;;;22.74;62.20
46534;BME280;32260;52.008;4.752;2022-08-03T01:41:10;101529.97;;;22.57;62.44
46534;BME280;32260;52.008;4.752;2022-08-03T01:43:38;101531.88;;;22.55;62.60
46534;BME280;32260;52.008;4.752;2022-08-03T01:46:06;101526.69;;;22.52;62.95
46534;BME280;32260;52.008;4.752;2022-08-03T01:48:36;101531.88;;;22.55;62.67
46534;BME280;32260;52.008;4.752;2022-08-03T01:51:06;101531.13;;;22.53;62.61
46534;BME280;32260;52.008;4.752;2022-08-03T01:53:34;101523.09;;;22.52;62.89
46534;BME280;32260;52.008;4.752;2022-08-03T01:56:02;101531.31;;;22.50;63.16
46534;BME280;32260;52.008;4.752;2022-08-03T01:58:29;101521.66;;;22.46;63.08
46534;BME280;32260;52.008;4.752;2022-08-03T02:00:57;101513.56;;;22.46;63.02
46534;BME280;32260;52.008;4.752;2022-08-03T02:03:28;101515.47;;;22.44;63.55
46534;BME280;32260;52.008;4.752;2022-08-03T02:05:56;101512.00;;;22.42;63.96
46534;BME280;32260;52.008;4.752;2022-08-03T02:08:25;101512.06;;;22.40;63.96
46534;BME280;32260;52.008;4.752;2022-08-03T02:10:52;101515.03;;;22.36;64.23
46534;BME280;32260;52.008;4.752;2022-08-03T02:13:20;101516.09;;;22.33;64.31
46534;BME280;32260;52.008;4.752;2022-08-03T02:15:47;101512.50;;;22.33;63.38
46534;BME280;32260;52.008;4.752;2022-08-03T02:18:14;101513.75;;;22.27;64.18
46534;BME280;32260;52.008;4.752;2022-08-03T02:20:42;101509.00;;;22.30;63.59
46534;BME280;32260;52.008;4.752;2022-08-03T02:23:09;101509.81;;;22.33;63.85
46534;BME280;32260;52.008;4.752;2022-08-03T02:25:42;101505.03;;;22.38;63.33
46534;BME280;32260;52.008;4.752;2022-08-03T02:28:14;101507.09;;;22.33;63.59
46534;BME280;32260;52.008;4.752;2022-08-03T02:30:44;101508.84;;;22.34;62.94
46534;BME280;32260;52.008;4.752;2022-08-03T02:33:17;101504.41;;;22.33;63.38
46534;BME280;32260;52.008;4.752;2022-08-03T02:35:46;101494.91;;;22.25;63.42
46534;BME280;32260;52.008;4.752;2022-08-03T02:38:15;101500.31;;;22.25;63.83
46534;BME280;32260;52.008;4.752;2022-08-03T02:40:44;101497.91;;;22.21;64.12
46534;BME280;32260;52.008;4.752;2022-08-03T02:43:15;101496.06;;;22.21;64.01
46534;BME280;32260;52.008;4.752;2022-08-03T02:45:44;101482.94;;;22.15;63.84
46534;BME280;32260;52.008;4.752;2022-08-03T02:48:15;101492.94;;;22.13;64.04
46534;BME280;32260;52.008;4.752;2022-08-03T02:50:44;101491.03;;;22.15;63.95
46534;BME280;32260;52.008;4.752;2022-08-03T02:53:13;101493.84;;;22.13;63.76
46534;BME280;32260;52.008;4.752;2022-08-03T02:55:42;101496.63;;;22.12;63.84
46534;BME280;32260;52.008;4.752;2022-08-03T02:58:09;101498.44;;;22.11;64.06
46534;BME280;32260;52.008;4.752;2022-08-03T03:00:37;101489.66;;;22.08;64.29
46534;BME280;32260;52.008;4.752;2022-08-03T03:03:04;101487.91;;;22.07;63.77
46534;BME280;32260;52.008;4.752;2022-08-03T03:05:32;101489.84;;;22.05;64.45
46534;BME280;32260;52.008;4.752;2022-08-03T03:07:59;101492.72;;;22.02;64.32
46534;BME280;32260;52.008;4.752;2022-08-03T03:10:26;101480.16;;;22.01;63.96
46534;BME280;32260;52.008;4.752;2022-08-03T03:12:55;101482.88;;;22.01;64.43
46534;BME280;32260;52.008;4.752;2022-08-03T03:15:23;101476.88;;;21.95;64.58
46534;BME280;32260;52.008;4.752;2022-08-03T03:17:51;101474.97;;;21.97;64.15
46534;BME280;32260;52.008;4.752;2022-08-03T03:20:19;101483.31;;;21.93;64.67
46534;BME280;32260;52.008;4.752;2022-08-03T03:22:48;101478.81;;;21.93;64.46
46534;BME280;32260;52.008;4.752;2022-08-03T03:25:15;101479.06;;;21.89;64.07
46534;BME280;32260;52.008;4.752;2022-08-03T03:27:42;101477.22;;;21.89;64.86
46534;BME280;32260;52.008;4.752;2022-08-03T03:30:09;101482.97;;;21.83;64.83
46534;BME280;32260;52.008;4.752;2022-08-03T03:32:35;101491.34;;;21.78;65.29
46534;BME280;32260;52.008;4.752;2022-08-03T03:35:02;101485.97;;;21.78;64.59
46534;BME280;32260;52.008;4.752;2022-08-03T03:37:29;101490.31;;;21.81;64.56
46534;BME280;32260;52.008;4.752;2022-08-03T03:39:55;101484.03;;;21.80;64.82
46534;BME280;32260;52.008;4.752;2022-08-03T03:42:22;101488.13;;;21.72;64.77
46534;BME280;32260;52.008;4.752;2022-08-03T03:44:48;101490.66;;;21.75;64.07
46534;BME280;32260;52.008;4.752;2022-08-03T03:47:14;101489.25;;;21.68;64.55
46534;BME280;32260;52.008;4.752;2022-08-03T03:49:41;101485.50;;;21.70;65.05
46534;BME280;32260;52.008;4.752;2022-08-03T03:52:08;101486.66;;;21.66;65.32
46534;BME280;32260;52.008;4.752;2022-08-03T03:54:42;101484.38;;;21.74;64.74
46534;BME280;32260;52.008;4.752;2022-08-03T03:57:09;101496.75;;;21.62;64.90
46534;BME280;32260;52.008;4.752;2022-08-03T03:59:40;101500.03;;;21.68;64.79
46534;BME280;32260;52.008;4.752;2022-08-03T04:02:08;101493.16;;;21.62;65.04
46534;BME280;32260;52.008;4.752;2022-08-03T04:04:35;101501.34;;;21.60;65.21
46534;BME280;32260;52.008;4.752;2022-08-03T04:07:24;101494.13;;;21.61;65.20
46534;BME280;32260;52.008;4.752;2022-08-03T04:10:14;101492.38;;;21.60;65.48
46534;BME280;32260;52.008;4.752;2022-08-03T04:13:02;101497.88;;;21.58;65.18
46534;BME280;32260;52.008;4.752;2022-08-03T04:15:32;101499.59;;;21.59;65.04
46534;BME280;32260;52.008;4.752;2022-08-03T04:18:01;101498.00;;;21.55;65.27
46534;BME280;32260;52.008;4.752;2022-08-03T04:20:30;101499.59;;;21.59;65.34
46534;BME280;32260;52.008;4.752;2022-08-03T04:22:58;101494.28;;;21.58;65.39
46534;BME280;32260;52.008;4.752;2022-08-03T04:25:29;101500.38;;;21.61;65.07
46534;BME280;32260;52.008;4.752;2022-08-03T04:28:00;101503.28;;;21.58;65.54
46534;BME280;32260;52.008;4.752;2022-08-03T04:30:27;101504.03;;;21.60;65.06
46534;BME280;32260;52.008;4.752;2022-08-03T04:32:57;101495.94;;;21.60;65.30
46534;BME280;32260;52.008;4.752;2022-08-03T04:35:25;101495.19;;;21.58;65.62
46534;BME280;32260;52.008;4.752;2022-08-03T04:37:54;101504.22;;;21.57;65.73
46534;BME280;32260;52.008;4.752;2022-08-03T04:40:40;101505.78;;;21.61;65.59
46534;BME280;32260;52.008;4.752;2022-08-03T04:43:09;101498.25;;;21.50;65.59
46534;BME280;32260;52.008;4.752;2022-08-03T04:45:36;101502.94;;;21.47;65.90
46534;BME280;32260;52.008;4.752;2022-08-03T04:48:04;101508.19;;;21.50;65.69
46534;BME280;32260;52.008;4.752;2022-08-03T04:50:30;101506.44;;;21.49;65.79
46534;BME280;32260;52.008;4.752;2022-08-03T04:52:57;101516.59;;;21.44;66.01
46534;BME280;32260;52.008;4.752;2022-08-03T04:58:03;101522.69;;;21.47;65.81
46534;BME280;32260;52.008;4.752;2022-08-03T05:00:29;101520.00;;;21.47;65.95
46534;BME280;32260;52.008;4.752;2022-08-03T05:02:56;101521.75;;;21.48;65.62
46534;BME280;32260;52.008;4.752;2022-08-03T05:05:22;101514.72;;;21.46;65.87
46534;BME280;32260;52.008;4.752;2022-08-03T05:07:48;101517.22;;;21.49;66.17
46534;BME280;32260;52.008;4.752;2022-08-03T05:10:15;101520.72;;;21.51;65.94
46534;BME280;32260;52.008;4.752;2022-08-03T05:12:42;101527.84;;;21.52;65.71
46534;BME280;32260;52.008;4.752;2022-08-03T05:15:08;101527.84;;;21.52;65.89
46534;BME280;32260;52.008;4.752;2022-08-03T05:17:34;101531.66;;;21.48;66.08
46534;BME280;32260;52.008;4.752;2022-08-03T05:20:01;101527.75;;;21.54;65.60
46534;BME280;32260;52.008;4.752;2022-08-03T05:22:29;101537.66;;;21.53;66.02
46534;BME280;32260;52.008;4.752;2022-08-03T05:24:55;101541.09;;;21.57;65.84
46534;BME280;32260;52.008;4.752;2022-08-03T05:27:21;101540.03;;;21.59;66.06
46534;BME280;32260;52.008;4.752;2022-08-03T05:29:48;101539.00;;;21.62;66.10
46534;BME280;32260;52.008;4.752;2022-08-03T05:32:15;101543.19;;;21.68;66.17
46534;BME280;32260;52.008;4.752;2022-08-03T05:34:42;101537.00;;;21.65;66.23
46534;BME280;32260;52.008;4.752;2022-08-03T05:37:08;101540.94;;;21.76;66.02
46534;BME280;32260;52.008;4.752;2022-08-03T05:39:35;101540.59;;;21.82;65.69
46534;BME280;32260;52.008;4.752;2022-08-03T05:42:01;101544.84;;;21.86;65.91
46534;BME280;32260;52.008;4.752;2022-08-03T05:44:27;101542.16;;;21.86;65.70
46534;BME280;32260;52.008;4.752;2022-08-03T05:46:53;101542.50;;;21.96;65.85
46534;BME280;32260;52.008;4.752;2022-08-03T05:49:20;101540.41;;;22.01;65.88
46534;BME280;32260;52.008;4.752;2022-08-03T05:51:46;101537.81;;;22.00;65.95
46534;BME280;32260;52.008;4.752;2022-08-03T05:54:12;101532.75;;;22.09;65.82
46534;BME280;32260;52.008;4.752;2022-08-03T05:56:38;101536.91;;;22.15;65.77
46534;BME280;32260;52.008;4.752;2022-08-03T05:59:06;101537.63;;;22.19;65.44
46534;BME280;32260;52.008;4.752;2022-08-03T06:01:32;101536.66;;;22.20;65.55
46534;BME280;32260;52.008;4.752;2022-08-03T06:03:58;101535.84;;;22.34;65.26
46534;BME280;32260;52.008;4.752;2022-08-03T06:06:24;101540.19;;;22.36;65.35
46534;BME280;32260;52.008;4.752;2022-08-03T06:08:50;101529.91;;;22.43;65.54
46534;BME280;32260;52.008;4.752;2022-08-03T06:11:17;101537.75;;;22.48;65.29
46534;BME280;32260;52.008;4.752;2022-08-03T06:13:44;101533.38;;;22.61;65.35
46534;BME280;32260;52.008;4.752;2022-08-03T06:16:10;101532.50;;;22.60;65.04
46534;BME280;32260;52.008;4.752;2022-08-03T06:18:36;101538.56;;;22.64;64.71
46534;BME280;32260;52.008;4.752;2022-08-03T06:21:03;101541.97;;;22.68;64.58
46534;BME280;32260;52.008;4.752;2022-08-03T06:23:29;101539.84;;;22.73;64.39
46534;BME280;32260;52.008;4.752;2022-08-03T06:25:55;101544.91;;;22.93;63.91
46534;BME280;32260;52.008;4.752;2022-08-03T06:28:21;101541.44;;;22.91;63.87
46534;BME280;32260;52.008;4.752;2022-08-03T06:30:47;101547.81;;;22.90;63.58
46534;BME280;32260;52.008;4.752;2022-08-03T06:33:14;101535.28;;;22.89;63.39
46534;BME280;32260;52.008;4.752;2022-08-03T06:35:40;101533.91;;;22.97;63.12
46534;BME280;32260;52.008;4.752;2022-08-03T06:38:06;101537.03;;;23.05;63.39
46534;BME280;32260;52.008;4.752;2022-08-03T06:40:35;101542.44;;;23.05;63.30
46534;BME280;32260;52.008;4.752;2022-08-03T06:43:05;101533.84;;;23.13;63.41
46534;BME280;32260;52.008;4.752;2022-08-03T06:45:32;101545.53;;;23.13;63.26
46534;BME280;32260;52.008;4.752;2022-08-03T06:48:02;101548.09;;;23.00;62.87
46534;BME280;32260;52.008;4.752;2022-08-03T06:50:29;101546.28;;;23.01;63.15
46534;BME280;32260;52.008;4.752;2022-08-03T06:52:56;101557.59;;;23.07;62.72
46534;BME280;32260;52.008;4.752;2022-08-03T06:55:22;101559.97;;;22.98;62.51
46534;BME280;32260;52.008;4.752;2022-08-03T06:57:48;101560.19;;;23.09;62.47
46534;BME280;32260;52.008;4.752;2022-08-03T07:00:14;101573.81;;;23.07;62.52
46534;BME280;32260;52.008;4.752;2022-08-03T07:02:41;101559.47;;;23.21;62.46
46534;BME280;32260;52.008;4.752;2022-08-03T07:05:08;101559.28;;;23.24;62.27
46534;BME280;32260;52.008;4.752;2022-08-03T07:07:34;101564.09;;;23.34;62.26
46534;BME280;32260;52.008;4.752;2022-08-03T07:10:00;101562.75;;;23.41;62.28
46534;BME280;32260;52.008;4.752;2022-08-03T07:12:28;101568.56;;;23.49;62.35
46534;BME280;32260;52.008;4.752;2022-08-03T07:14:55;101570.78;;;23.57;61.79
46534;BME280;32260;52.008;4.752;2022-08-03T07:17:22;101568.34;;;23.52;61.23
46534;BME280;32260;52.008;4.752;2022-08-03T07:19:48;101570.16;;;23.66;61.17
46534;BME280;32260;52.008;4.752;2022-08-03T07:22:15;101572.97;;;23.65;61.20
46534;BME280;32260;52.008;4.752;2022-08-03T07:24:41;101568.47;;;23.65;60.72
46534;BME280;32260;52.008;4.752;2022-08-03T07:27:07;101576.19;;;23.57;60.90
46534;BME280;32260;52.008;4.752;2022-08-03T07:29:34;101580.75;;;23.56;61.02
46534;BME280;32260;52.008;4.752;2022-08-03T07:32:01;101578.78;;;23.58;60.71
46534;BME280;32260;52.008;4.752;2022-08-03T07:34:28;101580.22;;;23.50;61.19
46534;BME280;32260;52.008;4.752;2022-08-03T07:36:58;101586.16;;;23.56;61.11
46534;BME280;32260;52.008;4.752;2022-08-03T07:39:24;101589.59;;;23.58;60.39
46534;BME280;32260;52.008;4.752;2022-08-03T07:41:50;101586.16;;;23.56;60.46
46534;BME280;32260;52.008;4.752;2022-08-03T07:44:17;101584.38;;;23.70;60.69
46534;BME280;32260;52.008;4.752;2022-08-03T07:46:44;101589.50;;;23.74;60.57
46534;BME280;32260;52.008;4.752;2022-08-03T07:49:10;101590.19;;;23.78;60.54
46534;BME280;32260;52.008;4.752;2022-08-03T07:51:36;101595.63;;;23.93;60.10
46534;BME280;32260;52.008;4.752;2022-08-03T07:54:03;101594.22;;;23.85;59.56
46534;BME280;32260;52.008;4.752;2022-08-03T07:56:29;101602.75;;;23.94;59.39
46534;BME280;32260;52.008;4.752;2022-08-03T07:58:55;101590.94;;;23.95;59.44
46534;BME280;32260;52.008;4.752;2022-08-03T08:01:21;101599.28;;;23.92;59.35
46534;BME280;32260;52.008;4.752;2022-08-03T08:03:49;101591.69;;;24.11;59.12
46534;BME280;32260;52.008;4.752;2022-08-03T08:06:15;101594.09;;;24.16;59.03
46534;BME280;32260;52.008;4.752;2022-08-03T08:08:43;101595.88;;;24.30;59.26
46534;BME280;32260;52.008;4.752;2022-08-03T08:11:09;101597.63;;;24.31;58.86
46534;BME280;32260;52.008;4.752;2022-08-03T08:13:35;101596.63;;;24.46;58.68
46534;BME280;32260;52.008;4.752;2022-08-03T08:16:03;101606.41;;;24.62;58.54
46534;BME280;32260;52.008;4.752;2022-08-03T08:18:29;101592.47;;;24.68;58.31
46534;BME280;32260;52.008;4.752;2022-08-03T08:20:56;101588.72;;;24.83;57.88
46534;BME280;32260;52.008;4.752;2022-08-03T08:23:22;101593.38;;;24.81;57.94
46534;BME280;32260;52.008;4.752;2022-08-03T08:25:50;101593.06;;;24.86;57.34
46534;BME280;32260;52.008;4.752;2022-08-03T08:28:18;101593.28;;;24.96;57.13
46534;BME280;32260;52.008;4.752;2022-08-03T08:30:45;101598.81;;;25.07;57.04
46534;BME280;32260;52.008;4.752;2022-08-03T08:33:11;101597.31;;;25.03;56.62
46534;BME280;32260;52.008;4.752;2022-08-03T08:35:38;101597.44;;;25.14;56.38
46534;BME280;32260;52.008;4.752;2022-08-03T08:38:04;101603.09;;;25.11;56.17
46534;BME280;32260;52.008;4.752;2022-08-03T08:40:30;101597.44;;;25.14;56.11
46534;BME280;32260;52.008;4.752;2022-08-03T08:42:56;101599.41;;;25.12;56.22
46534;BME280;32260;52.008;4.752;2022-08-03T08:45:22;101600.47;;;25.23;55.80
46534;BME280;32260;52.008;4.752;2022-08-03T08:47:50;101595.19;;;25.21;55.80
46534;BME280;32260;52.008;4.752;2022-08-03T08:50:19;101597.34;;;25.29;55.21
46534;BME280;32260;52.008;4.752;2022-08-03T08:52:48;101599.09;;;25.30;55.59
46534;BME280;32260;52.008;4.752;2022-08-03T08:55:20;101589.66;;;25.48;55.32
46534;BME280;32260;52.008;4.752;2022-08-03T08:57:49;101581.63;;;25.60;54.72
46534;BME280;32260;52.008;4.752;2022-08-03T09:00:17;101595.16;;;25.73;54.78
46534;BME280;32260;52.008;4.752;2022-08-03T09:02:44;101582.44;;;25.73;54.73
46534;BME280;32260;52.008;4.752;2022-08-03T09:05:12;101595.03;;;25.74;54.52
46534;BME280;32260;52.008;4.752;2022-08-03T09:07:40;101586.69;;;25.77;54.50
46534;BME280;32260;52.008;4.752;2022-08-03T09:10:07;101582.19;;;25.89;54.69
46534;BME280;32260;52.008;4.752;2022-08-03T09:12:38;101589.13;;;26.06;54.16
46534;BME280;32260;52.008;4.752;2022-08-03T09:18:01;101594.25;;;26.11;53.73
46534;BME280;32260;52.008;4.752;2022-08-03T09:20:30;101592.44;;;26.23;53.63
46534;BME280;32260;52.008;4.752;2022-08-03T09:28:15;101604.19;;;26.47;53.05
46534;BME280;32260;52.008;4.752;2022-08-03T09:30:43;101603.00;;;26.63;53.63
46534;BME280;32260;52.008;4.752;2022-08-03T09:33:12;101601.38;;;26.60;52.91
46534;BME280;32260;52.008;4.752;2022-08-03T09:35:42;101606.72;;;26.62;52.24
46534;BME280;32260;52.008;4.752;2022-08-03T09:38:13;101603.16;;;26.73;51.99
46534;BME280;32260;52.008;4.752;2022-08-03T09:40:39;101601.03;;;26.65;52.31
46534;BME280;32260;52.008;4.752;2022-08-03T09:43:06;101595.72;;;26.88;51.83
46534;BME280;32260;52.008;4.752;2022-08-03T09:45:33;101595.72;;;26.88;51.28
46534;BME280;32260;52.008;4.752;2022-08-03T09:48:20;101599.00;;;27.16;51.52
46534;BME280;32260;52.008;4.752;2022-08-03T09:50:52;101599.00;;;27.16;51.38
46534;BME280;32260;52.008;4.752;2022-08-03T09:53:19;101602.28;;;27.43;50.71
46534;BME280;32260;52.008;4.752;2022-08-03T09:58:29;101593.13;;;27.44;50.04
46534;BME280;32260;52.008;4.752;2022-08-03T10:03:37;101598.34;;;27.70;49.84
46534;BME280;32260;52.008;4.752;2022-08-03T10:06:19;101591.50;;;27.76;47.84
46534;BME280;32260;52.008;4.752;2022-08-03T10:09:18;101593.50;;;27.85;48.83
46534;BME280;32260;52.008;4.752;2022-08-03T10:11:33;101591.13;;;27.92;47.84
46534;BME280;32260;52.008;4.752;2022-08-03T10:14:03;101595.09;;;27.88;48.31
46534;BME280;32260;52.008;4.752;2022-08-03T10:16:34;101589.25;;;27.92;47.97
46534;BME280;32260;52.008;4.752;2022-08-03T10:19:02;101591.25;;;28.02;46.97
46534;BME280;32260;52.008;4.752;2022-08-03T10:21:33;101580.22;;;28.15;46.78
46534;BME280;32260;52.008;4.752;2022-08-03T10:24:03;101575.72;;;28.25;46.52
46534;BME280;32260;52.008;4.752;2022-08-03T10:26:33;101576.88;;;28.44;46.96
46534;BME280;32260;52.008;4.752;2022-08-03T10:29:03;101582.50;;;28.63;47.22
46534;BME280;32260;52.008;4.752;2022-08-03T10:31:39;101579.97;;;28.50;45.98
46534;BME280;32260;52.008;4.752;2022-08-03T10:34:14;101582.16;;;28.68;46.53
46534;BME280;32260;52.008;4.752;2022-08-03T10:36:42;101583.00;;;28.68;46.36
46534;BME280;32260;52.008;4.752;2022-08-03T10:39:11;101574.06;;;28.78;45.76
46534;BME280;32260;52.008;4.752;2022-08-03T10:41:40;101573.06;;;29.00;45.89
46534;BME280;32260;52.008;4.752;2022-08-03T10:46:47;101579.50;;;28.99;44.17
46534;BME280;32260;52.008;4.752;2022-08-03T10:49:16;101571.94;;;29.02;43.12
46534;BME280;32260;52.008;4.752;2022-08-03T10:51:45;101570.13;;;29.13;43.46
46534;BME280;32260;52.008;4.752;2022-08-03T10:54:39;101571.13;;;29.33;43.70
46534;BME280;32260;52.008;4.752;2022-08-03T11:00:26;101563.66;;;29.35;42.72
46534;BME280;32260;52.008;4.752;2022-08-03T11:03:13;101558.16;;;29.56;43.71
46534;BME280;32260;52.008;4.752;2022-08-03T11:05:41;101553.69;;;29.55;43.26
46534;BME280;32260;52.008;4.752;2022-08-03T11:08:29;101557.50;;;29.74;43.45
46534;BME280;32260;52.008;4.752;2022-08-03T11:11:00;101545.91;;;29.91;42.30
46534;BME280;32260;52.008;4.752;2022-08-03T11:13:28;101561.84;;;29.86;41.83
46534;BME280;32260;52.008;4.752;2022-08-03T11:15:58;101554.09;;;29.91;41.67
46534;BME280;32260;52.008;4.752;2022-08-03T11:18:25;101552.09;;;29.93;40.91
46534;BME280;32260;52.008;4.752;2022-08-03T11:20:54;101550.69;;;30.09;40.73
46534;BME280;32260;52.008;4.752;2022-08-03T11:26:18;101551.25;;;30.02;39.78
46534;BME280;32260;52.008;4.752;2022-08-03T11:28:47;101561.47;;;30.10;40.17
46534;BME280;32260;52.008;4.752;2022-08-03T11:34:12;101545.81;;;30.32;40.10
46534;BME280;32260;52.008;4.752;2022-08-03T11:37:30;101540.78;;;30.47;39.84
46534;BME280;32260;52.008;4.752;2022-08-03T11:39:47;101554.72;;;30.34;39.38
46534;BME280;32260;52.008;4.752;2022-08-03T11:45:07;101540.50;;;30.70;40.12
46534;BME280;32260;52.008;4.752;2022-08-03T11:47:37;101548.13;;;30.76;39.04
46534;BME280;32260;52.008;4.752;2022-08-03T11:50:04;101541.75;;;30.85;38.78
46534;BME280;32260;52.008;4.752;2022-08-03T11:52:35;101553.97;;;31.01;38.40
46534;BME280;32260;52.008;4.752;2022-08-03T11:55:02;101547.47;;;31.02;38.22
46534;BME280;32260;52.008;4.752;2022-08-03T11:57:34;101558.13;;;31.05;39.29
46534;BME280;32260;52.008;4.752;2022-08-03T12:00:00;101549.63;;;31.18;38.96
46534;BME280;32260;52.008;4.752;2022-08-03T12:02:26;101543.75;;;31.12;39.06
46534;BME280;32260;52.008;4.752;2022-08-03T12:04:56;101550.84;;;31.43;38.96
46534;BME280;32260;52.008;4.752;2022-08-03T12:07:26;101548.91;;;31.53;38.69
46534;BME280;32260;52.008;4.752;2022-08-03T12:10:10;101550.03;;;31.70;38.10
46534;BME280;32260;52.008;4.752;2022-08-03T12:12:38;101543.97;;;31.67;37.60
46534;BME280;32260;52.008;4.752;2022-08-03T12:15:05;101547.91;;;31.54;37.71
46534;BME280;32260;52.008;4.752;2022-08-03T12:17:40;101543.06;;;31.76;37.58
46534;BME280;32260;52.008;4.752;2022-08-03T12:20:08;101540.81;;;31.89;37.42
46534;BME280;32260;52.008;4.752;2022-08-03T12:22:37;101557.75;;;31.75;36.81
46534;BME280;32260;52.008;4.752;2022-08-03T12:25:06;101553.28;;;31.74;36.83
46534;BME280;32260;52.008;4.752;2022-08-03T12:27:33;101544.06;;;31.75;36.88
46534;BME280;32260;52.008;4.752;2022-08-03T12:30:00;101539.19;;;31.97;37.61
46534;BME280;32260;52.008;4.752;2022-08-03T12:32:29;101531.53;;;32.00;37.21
46534;BME280;32260;52.008;4.752;2022-08-03T12:34:56;101542.38;;;32.10;37.56
46534;BME280;32260;52.008;4.752;2022-08-03T12:37:26;101532.06;;;32.40;37.25
46534;BME280;32260;52.008;4.752;2022-08-03T12:39:54;101554.81;;;32.50;37.09
46534;BME280;32260;52.008;4.752;2022-08-03T12:42:20;101539.13;;;32.61;36.40
46534;BME280;32260;52.008;4.752;2022-08-03T12:44:47;101536.38;;;32.42;36.24
46534;BME280;32260;52.008;4.752;2022-08-03T12:47:14;101542.13;;;32.49;35.54
46534;BME280;32260;52.008;4.752;2022-08-03T12:49:45;101535.72;;;32.67;36.14
46534;BME280;32260;52.008;4.752;2022-08-03T12:52:11;101536.28;;;32.52;36.01
46534;BME280;32260;52.008;4.752;2022-08-03T12:54:38;101550.81;;;32.63;36.34
46534;BME280;32260;52.008;4.752;2022-08-03T12:57:06;101535.50;;;32.78;35.31
46534;BME280;32260;52.008;4.752;2022-08-03T13:02:15;101528.81;;;33.07;35.67
46534;BME280;32260;52.008;4.752;2022-08-03T13:04:42;101533.22;;;33.00;35.28
46534;BME280;32260;52.008;4.752;2022-08-03T13:07:10;101535.03;;;33.09;36.03
46534;BME280;32260;52.008;4.752;2022-08-03T13:12:25;101530.34;;;33.01;34.98
46534;BME280;32260;52.008;4.752;2022-08-03T13:14:54;101517.78;;;33.25;34.34
46534;BME280;32260;52.008;4.752;2022-08-03T13:17:20;101521.19;;;33.19;34.50
46534;BME280;32260;52.008;4.752;2022-08-03T13:19:47;101527.88;;;33.25;34.48
46534;BME280;32260;52.008;4.752;2022-08-03T13:22:19;101527.63;;;33.36;33.74
46534;BME280;32260;52.008;4.752;2022-08-03T13:24:50;101518.38;;;33.37;34.78
46534;BME280;32260;52.008;4.752;2022-08-03T13:27:18;101518.63;;;33.26;34.49
46534;BME280;32260;52.008;4.752;2022-08-03T13:29:44;101520.44;;;33.35;33.63
46534;BME280;32260;52.008;4.752;2022-08-03T13:32:10;101524.56;;;33.39;33.96
46534;BME280;32260;52.008;4.752;2022-08-03T13:34:39;101519.47;;;33.52;33.96
46534;BME280;32260;52.008;4.752;2022-08-03T13:37:05;101529.44;;;33.62;34.12
46534;BME280;32260;52.008;4.752;2022-08-03T13:39:31;101519.06;;;33.39;33.36
46534;BME280;32260;52.008;4.752;2022-08-03T13:41:57;101516.97;;;33.33;33.23